sensor_id;sensor_type;location;lat;lon;timestamp;temperature;humidity
80274;DHT22;69576;51.902;-8.462;2023-06-04T00:01:14;18.40;57.50
80274;DHT22;69576;51.902;-8.462;2023-06-04T00:03:40;18.40;57.40
80274;DHT22;69576;51.902;-8.462;2023-06-04T00:06:06;18.40;57.50
80274;DHT22;69576;51.902;-8.462;2023-06-04T00:08:32;18.30;57.50
80274;DHT22;69576;51.902;-8.462;2023-06-04T00:10:58;18.30;57.40
80274;DHT22;69576;51.902;-8.462;2023-06-04T00:13:23;18.30;57.40
80274;DHT22;69576;51.902;-8.462;2023-06-04T00:15:49;18.30;57.40
80274;DHT22;69576;51.902;-8.462;2023-06-04T00:18:15;18.30;57.20
80274;DHT22;69576;51.902;-8.462;2023-06-04T00:20:43;18.30;57.10
80274;DHT22;69576;51.902;-8.462;2023-06-04T00:23:11;18.30;57.00
80274;DHT22;69576;51.902;-8.462;2023-06-04T00:25:39;18.20;57.00
80274;DHT22;69576;51.902;-8.462;2023-06-04T00:28:08;18.20;57.10
80274;DHT22;69576;51.902;-8.462;2023-06-04T00:30:38;18.20;57.00
80274;DHT22;69576;51.902;-8.462;2023-06-04T00:33:04;18.20;57.00
80274;DHT22;69576;51.902;-8.462;2023-06-04T00:35:32;18.20;57.00
80274;DHT22;69576;51.902;-8.462;2023-06-04T00:37:58;18.20;56.90
80274;DHT22;69576;51.902;-8.462;2023-06-04T00:40:24;18.20;57.20
80274;DHT22;69576;51.902;-8.462;2023-06-04T00:42:52;18.10;57.10
80274;DHT22;69576;51.902;-8.462;2023-06-04T00:45:21;18.10;57.10
80274;DHT22;69576;51.902;-8.462;2023-06-04T00:47:47;18.10;57.10
80274;DHT22;69576;51.902;-8.462;2023-06-04T00:50:13;18.10;57.20
80274;DHT22;69576;51.902;-8.462;2023-06-04T00:52:40;18.10;57.20
80274;DHT22;69576;51.902;-8.462;2023-06-04T00:55:11;18.10;57.30
80274;DHT22;69576;51.902;-8.462;2023-06-04T00:57:37;18.10;57.20
80274;DHT22;69576;51.902;-8.462;2023-06-04T01:00:04;18.10;57.30
80274;DHT22;69576;51.902;-8.462;2023-06-04T01:02:33;18.00;57.30
80274;DHT22;69576;51.902;-8.462;2023-06-04T01:07:59;18.00;57.40
80274;DHT22;69576;51.902;-8.462;2023-06-04T01:10:27;18.00;57.40
80274;DHT22;69576;51.902;-8.462;2023-06-04T01:12:52;18.00;57.30
80274;DHT22;69576;51.902;-8.462;2023-06-04T01:15:18;18.00;57.20
80274;DHT22;69576;51.902;-8.462;2023-06-04T01:17:48;18.00;57.10
80274;DHT22;69576;51.902;-8.462;2023-06-04T01:25:41;18.00;57.30
80274;DHT22;69576;51.902;-8.462;2023-06-04T01:28:08;18.00;57.30
80274;DHT22;69576;51.902;-8.462;2023-06-04T01:30:40;17.90;57.40
80274;DHT22;69576;51.902;-8.462;2023-06-04T01:33:17;17.90;57.40
80274;DHT22;69576;51.902;-8.462;2023-06-04T01:35:44;17.90;57.50
80274;DHT22;69576;51.902;-8.462;2023-06-04T01:38:13;17.90;57.30
80274;DHT22;69576;51.902;-8.462;2023-06-04T01:40:38;17.90;57.40
80274;DHT22;69576;51.902;-8.462;2023-06-04T01:43:07;17.90;57.90
80274;DHT22;69576;51.902;-8.462;2023-06-04T01:45:35;17.80;58.00
80274;DHT22;69576;51.902;-8.462;2023-06-04T01:48:02;17.80;57.70
80274;DHT22;69576;51.902;-8.462;2023-06-04T01:50:31;17.80;57.50
80274;DHT22;69576;51.902;-8.462;2023-06-04T01:52:57;17.80;57.40
80274;DHT22;69576;51.902;-8.462;2023-06-04T01:55:23;17.80;57.30
80274;DHT22;69576;51.902;-8.462;2023-06-04T01:57:51;17.80;57.20
80274;DHT22;69576;51.902;-8.462;2023-06-04T02:00:19;17.80;57.30
80274;DHT22;69576;51.902;-8.462;2023-06-04T02:02:48;17.80;57.10
80274;DHT22;69576;51.902;-8.462;2023-06-04T02:05:16;17.80;57.30
80274;DHT22;69576;51.902;-8.462;2023-06-04T02:07:43;17.80;57.40
80274;DHT22;69576;51.902;-8.462;2023-06-04T02:10:15;17.70;57.50
80274;DHT22;69576;51.902;-8.462;2023-06-04T02:12:56;17.70;57.70
80274;DHT22;69576;51.902;-8.462;2023-06-04T02:15:23;17.70;57.50
80274;DHT22;69576;51.902;-8.462;2023-06-04T02:17:56;17.60;57.30
80274;DHT22;69576;51.902;-8.462;2023-06-04T02:20:28;17.60;57.30
80274;DHT22;69576;51.902;-8.462;2023-06-04T02:22:57;17.60;57.30
80274;DHT22;69576;51.902;-8.462;2023-06-04T02:25:25;17.60;57.10
80274;DHT22;69576;51.902;-8.462;2023-06-04T02:27:50;17.60;57.20
80274;DHT22;69576;51.902;-8.462;2023-06-04T02:30:18;17.60;57.20
80274;DHT22;69576;51.902;-8.462;2023-06-04T02:32:44;17.60;57.10
80274;DHT22;69576;51.902;-8.462;2023-06-04T02:35:10;17.50;57.20
80274;DHT22;69576;51.902;-8.462;2023-06-04T02:37:39;17.50;57.30
80274;DHT22;69576;51.902;-8.462;2023-06-04T02:40:05;17.50;57.40
80274;DHT22;69576;51.902;-8.462;2023-06-04T02:42:33;17.50;57.50
80274;DHT22;69576;51.902;-8.462;2023-06-04T02:45:02;17.50;57.50
80274;DHT22;69576;51.902;-8.462;2023-06-04T02:47:27;17.50;57.50
80274;DHT22;69576;51.902;-8.462;2023-06-04T02:49:53;17.50;57.40
80274;DHT22;69576;51.902;-8.462;2023-06-04T02:52:19;17.50;57.40
80274;DHT22;69576;51.902;-8.462;2023-06-04T02:54:47;17.50;57.40
80274;DHT22;69576;51.902;-8.462;2023-06-04T02:57:12;17.50;57.40
80274;DHT22;69576;51.902;-8.462;2023-06-04T02:59:41;17.50;57.60
80274;DHT22;69576;51.902;-8.462;2023-06-04T03:02:06;17.40;57.70
80274;DHT22;69576;51.902;-8.462;2023-06-04T03:04:32;17.40;57.60
80274;DHT22;69576;51.902;-8.462;2023-06-04T03:07:03;17.40;57.70
80274;DHT22;69576;51.902;-8.462;2023-06-04T03:09:30;17.40;57.60
80274;DHT22;69576;51.902;-8.462;2023-06-04T03:12:03;17.40;57.50
80274;DHT22;69576;51.902;-8.462;2023-06-04T03:14:29;17.40;57.40
80274;DHT22;69576;51.902;-8.462;2023-06-04T03:17:02;17.40;57.50
80274;DHT22;69576;51.902;-8.462;2023-06-04T03:19:38;17.40;57.50
80274;DHT22;69576;51.902;-8.462;2023-06-04T03:22:06;17.30;57.60
80274;DHT22;69576;51.902;-8.462;2023-06-04T03:24:34;17.30;57.50
80274;DHT22;69576;51.902;-8.462;2023-06-04T03:27:01;17.30;57.50
80274;DHT22;69576;51.902;-8.462;2023-06-04T03:29:27;17.30;57.50
80274;DHT22;69576;51.902;-8.462;2023-06-04T03:31:52;17.30;57.70
80274;DHT22;69576;51.902;-8.462;2023-06-04T03:34:18;17.20;57.60
80274;DHT22;69576;51.902;-8.462;2023-06-04T03:36:44;17.20;57.60
80274;DHT22;69576;51.902;-8.462;2023-06-04T03:39:10;17.20;57.50
80274;DHT22;69576;51.902;-8.462;2023-06-04T03:41:41;17.20;57.50
80274;DHT22;69576;51.902;-8.462;2023-06-04T03:44:13;17.20;57.60
80274;DHT22;69576;51.902;-8.462;2023-06-04T03:46:42;17.20;57.50
80274;DHT22;69576;51.902;-8.462;2023-06-04T03:49:10;17.20;57.30
80274;DHT22;69576;51.902;-8.462;2023-06-04T03:51:40;17.20;57.40
80274;DHT22;69576;51.902;-8.462;2023-06-04T03:54:06;17.20;57.50
80274;DHT22;69576;51.902;-8.462;2023-06-04T03:56:32;17.20;57.50
80274;DHT22;69576;51.902;-8.462;2023-06-04T03:58:58;17.10;57.50
80274;DHT22;69576;51.902;-8.462;2023-06-04T04:01:26;17.10;57.40
80274;DHT22;69576;51.902;-8.462;2023-06-04T04:03:55;17.10;57.40
80274;DHT22;69576;51.902;-8.462;2023-06-04T04:06:21;17.00;57.50
80274;DHT22;69576;51.902;-8.462;2023-06-04T04:08:49;17.00;57.50
80274;DHT22;69576;51.902;-8.462;2023-06-04T04:11:16;17.00;57.50
80274;DHT22;69576;51.902;-8.462;2023-06-04T04:13:43;17.00;57.40
80274;DHT22;69576;51.902;-8.462;2023-06-04T04:16:10;17.00;57.40
80274;DHT22;69576;51.902;-8.462;2023-06-04T04:18:36;17.00;57.50
80274;DHT22;69576;51.902;-8.462;2023-06-04T04:21:03;17.00;57.40
80274;DHT22;69576;51.902;-8.462;2023-06-04T04:23:29;17.00;57.40
80274;DHT22;69576;51.902;-8.462;2023-06-04T04:26:03;17.00;57.60
80274;DHT22;69576;51.902;-8.462;2023-06-04T04:28:31;17.00;57.70
80274;DHT22;69576;51.902;-8.462;2023-06-04T04:31:00;17.00;57.40
80274;DHT22;69576;51.902;-8.462;2023-06-04T04:33:29;17.00;57.40
80274;DHT22;69576;51.902;-8.462;2023-06-04T04:36:00;16.90;57.40
80274;DHT22;69576;51.902;-8.462;2023-06-04T04:38:29;16.90;57.50
80274;DHT22;69576;51.902;-8.462;2023-06-04T04:40:59;16.90;57.50
80274;DHT22;69576;51.902;-8.462;2023-06-04T04:43:34;16.90;57.60
80274;DHT22;69576;51.902;-8.462;2023-06-04T04:46:00;16.90;57.60
80274;DHT22;69576;51.902;-8.462;2023-06-04T04:48:26;16.90;57.50
80274;DHT22;69576;51.902;-8.462;2023-06-04T04:50:55;16.90;57.60
80274;DHT22;69576;51.902;-8.462;2023-06-04T04:53:23;16.90;57.50
80274;DHT22;69576;51.902;-8.462;2023-06-04T04:55:49;16.90;57.50
80274;DHT22;69576;51.902;-8.462;2023-06-04T04:58:15;16.80;57.60
80274;DHT22;69576;51.902;-8.462;2023-06-04T05:00:41;16.80;57.60
80274;DHT22;69576;51.902;-8.462;2023-06-04T05:03:07;16.80;57.40
80274;DHT22;69576;51.902;-8.462;2023-06-04T05:05:33;16.80;57.30
80274;DHT22;69576;51.902;-8.462;2023-06-04T05:08:01;16.80;57.50
80274;DHT22;69576;51.902;-8.462;2023-06-04T05:10:27;16.80;57.70
80274;DHT22;69576;51.902;-8.462;2023-06-04T05:12:53;16.80;57.60
80274;DHT22;69576;51.902;-8.462;2023-06-04T05:15:21;16.80;57.60
80274;DHT22;69576;51.902;-8.462;2023-06-04T05:17:52;16.80;57.60
80274;DHT22;69576;51.902;-8.462;2023-06-04T05:20:19;16.80;57.50
80274;DHT22;69576;51.902;-8.462;2023-06-04T05:22:49;16.80;57.20
80274;DHT22;69576;51.902;-8.462;2023-06-04T05:25:16;16.80;57.50
80274;DHT22;69576;51.902;-8.462;2023-06-04T05:27:41;16.80;57.40
80274;DHT22;69576;51.902;-8.462;2023-06-04T05:30:08;16.80;57.60
80274;DHT22;69576;51.902;-8.462;2023-06-04T05:32:34;16.80;57.60
80274;DHT22;69576;51.902;-8.462;2023-06-04T05:35:04;16.80;57.60
80274;DHT22;69576;51.902;-8.462;2023-06-04T05:37:30;16.80;57.50
80274;DHT22;69576;51.902;-8.462;2023-06-04T05:39:56;16.80;57.40
80274;DHT22;69576;51.902;-8.462;2023-06-04T05:42:22;16.70;57.30
80274;DHT22;69576;51.902;-8.462;2023-06-04T05:44:49;16.70;57.50
80274;DHT22;69576;51.902;-8.462;2023-06-04T05:47:16;16.70;57.50
80274;DHT22;69576;51.902;-8.462;2023-06-04T05:49:44;16.70;57.60
80274;DHT22;69576;51.902;-8.462;2023-06-04T05:52:13;16.70;57.40
80274;DHT22;69576;51.902;-8.462;2023-06-04T05:54:41;16.70;57.60
80274;DHT22;69576;51.902;-8.462;2023-06-04T05:57:09;16.70;57.40
80274;DHT22;69576;51.902;-8.462;2023-06-04T05:59:35;16.70;57.30
80274;DHT22;69576;51.902;-8.462;2023-06-04T06:02:03;16.70;57.30
80274;DHT22;69576;51.902;-8.462;2023-06-04T06:04:28;16.70;57.40
80274;DHT22;69576;51.902;-8.462;2023-06-04T06:06:55;16.70;57.40
80274;DHT22;69576;51.902;-8.462;2023-06-04T06:09:21;16.70;57.40
80274;DHT22;69576;51.902;-8.462;2023-06-04T06:11:47;16.70;57.40
80274;DHT22;69576;51.902;-8.462;2023-06-04T06:14:13;16.70;57.20
80274;DHT22;69576;51.902;-8.462;2023-06-04T06:16:41;16.70;57.20
80274;DHT22;69576;51.902;-8.462;2023-06-04T06:19:06;16.70;57.50
80274;DHT22;69576;51.902;-8.462;2023-06-04T06:21:32;16.80;57.50
80274;DHT22;69576;51.902;-8.462;2023-06-04T06:23:58;16.80;57.40
80274;DHT22;69576;51.902;-8.462;2023-06-04T06:26:24;16.80;57.30
80274;DHT22;69576;51.902;-8.462;2023-06-04T06:28:50;16.90;57.40
80274;DHT22;69576;51.902;-8.462;2023-06-04T06:31:16;16.90;57.30
80274;DHT22;69576;51.902;-8.462;2023-06-04T06:33:42;16.90;57.40
80274;DHT22;69576;51.902;-8.462;2023-06-04T06:36:10;17.00;57.40
80274;DHT22;69576;51.902;-8.462;2023-06-04T06:38:37;17.00;57.20
80274;DHT22;69576;51.902;-8.462;2023-06-04T06:41:06;17.00;57.10
80274;DHT22;69576;51.902;-8.462;2023-06-04T06:43:32;17.00;57.30
80274;DHT22;69576;51.902;-8.462;2023-06-04T06:45:58;17.00;57.30
80274;DHT22;69576;51.902;-8.462;2023-06-04T06:48:24;17.10;57.20
80274;DHT22;69576;51.902;-8.462;2023-06-04T06:50:53;17.10;57.00
80274;DHT22;69576;51.902;-8.462;2023-06-04T06:53:18;17.10;57.10
80274;DHT22;69576;51.902;-8.462;2023-06-04T06:55:46;17.20;57.00
80274;DHT22;69576;51.902;-8.462;2023-06-04T06:58:15;17.20;57.10
80274;DHT22;69576;51.902;-8.462;2023-06-04T07:00:41;17.20;56.90
80274;DHT22;69576;51.902;-8.462;2023-06-04T07:03:06;17.20;56.80
80274;DHT22;69576;51.902;-8.462;2023-06-04T07:05:35;17.20;56.80
80274;DHT22;69576;51.902;-8.462;2023-06-04T07:08:03;17.20;56.90
80274;DHT22;69576;51.902;-8.462;2023-06-04T07:10:29;17.20;56.70
80274;DHT22;69576;51.902;-8.462;2023-06-04T07:12:57;17.20;56.60
80274;DHT22;69576;51.902;-8.462;2023-06-04T07:15:23;17.20;56.60
80274;DHT22;69576;51.902;-8.462;2023-06-04T07:17:49;17.30;56.70
80274;DHT22;69576;51.902;-8.462;2023-06-04T07:20:15;17.30;56.80
80274;DHT22;69576;51.902;-8.462;2023-06-04T07:22:43;17.30;56.80
80274;DHT22;69576;51.902;-8.462;2023-06-04T07:25:09;17.40;56.90
80274;DHT22;69576;51.902;-8.462;2023-06-04T07:27:35;17.40;56.80
80274;DHT22;69576;51.902;-8.462;2023-06-04T07:30:01;17.40;56.70
80274;DHT22;69576;51.902;-8.462;2023-06-04T07:32:26;17.50;57.50
80274;DHT22;69576;51.902;-8.462;2023-06-04T07:34:53;17.50;56.90
80274;DHT22;69576;51.902;-8.462;2023-06-04T07:37:18;17.50;56.20
80274;DHT22;69576;51.902;-8.462;2023-06-04T07:39:44;17.50;55.80
80274;DHT22;69576;51.902;-8.462;2023-06-04T07:42:10;17.50;55.80
80274;DHT22;69576;51.902;-8.462;2023-06-04T07:44:38;17.50;55.70
80274;DHT22;69576;51.902;-8.462;2023-06-04T07:47:04;17.50;55.60
80274;DHT22;69576;51.902;-8.462;2023-06-04T07:49:30;17.50;55.60
80274;DHT22;69576;51.902;-8.462;2023-06-04T07:52:02;17.50;55.70
80274;DHT22;69576;51.902;-8.462;2023-06-04T07:54:27;17.50;55.70
80274;DHT22;69576;51.902;-8.462;2023-06-04T07:56:55;17.50;55.90
80274;DHT22;69576;51.902;-8.462;2023-06-04T07:59:24;17.50;56.00
80274;DHT22;69576;51.902;-8.462;2023-06-04T08:01:50;17.50;56.00
80274;DHT22;69576;51.902;-8.462;2023-06-04T08:04:19;17.60;56.20
80274;DHT22;69576;51.902;-8.462;2023-06-04T08:06:45;17.60;56.20
80274;DHT22;69576;51.902;-8.462;2023-06-04T08:09:12;17.60;56.20
80274;DHT22;69576;51.902;-8.462;2023-06-04T08:11:40;17.70;56.30
80274;DHT22;69576;51.902;-8.462;2023-06-04T08:14:06;17.80;56.50
80274;DHT22;69576;51.902;-8.462;2023-06-04T08:16:34;17.80;56.50
80274;DHT22;69576;51.902;-8.462;2023-06-04T08:19:02;18.00;56.50
80274;DHT22;69576;51.902;-8.462;2023-06-04T08:21:28;18.00;56.60
80274;DHT22;69576;51.902;-8.462;2023-06-04T08:23:55;18.10;56.60
80274;DHT22;69576;51.902;-8.462;2023-06-04T08:26:21;18.30;56.70
80274;DHT22;69576;51.902;-8.462;2023-06-04T08:28:50;18.50;56.60
80274;DHT22;69576;51.902;-8.462;2023-06-04T08:31:18;18.70;56.60
80274;DHT22;69576;51.902;-8.462;2023-06-04T08:33:47;18.90;56.50
80274;DHT22;69576;51.902;-8.462;2023-06-04T08:36:16;19.00;56.40
80274;DHT22;69576;51.902;-8.462;2023-06-04T08:38:44;19.20;56.40
80274;DHT22;69576;51.902;-8.462;2023-06-04T08:41:20;19.30;56.40
80274;DHT22;69576;51.902;-8.462;2023-06-04T08:43:49;19.50;56.40
80274;DHT22;69576;51.902;-8.462;2023-06-04T08:46:17;19.60;56.40
80274;DHT22;69576;51.902;-8.462;2023-06-04T08:48:44;19.70;56.30
80274;DHT22;69576;51.902;-8.462;2023-06-04T08:51:12;19.90;56.20
80274;DHT22;69576;51.902;-8.462;2023-06-04T08:53:39;19.90;56.10
80274;DHT22;69576;51.902;-8.462;2023-06-04T08:56:07;20.00;56.00
80274;DHT22;69576;51.902;-8.462;2023-06-04T08:58:33;20.10;56.00
80274;DHT22;69576;51.902;-8.462;2023-06-04T09:01:00;20.20;56.00
80274;DHT22;69576;51.902;-8.462;2023-06-04T09:03:27;20.30;55.90
80274;DHT22;69576;51.902;-8.462;2023-06-04T09:05:59;20.30;55.90
80274;DHT22;69576;51.902;-8.462;2023-06-04T09:08:27;20.30;55.90
80274;DHT22;69576;51.902;-8.462;2023-06-04T09:10:56;20.40;55.90
80274;DHT22;69576;51.902;-8.462;2023-06-04T09:13:22;20.50;55.80
80274;DHT22;69576;51.902;-8.462;2023-06-04T09:16:02;20.60;55.70
80274;DHT22;69576;51.902;-8.462;2023-06-04T09:18:28;20.70;55.60
80274;DHT22;69576;51.902;-8.462;2023-06-04T09:21:04;20.80;55.60
80274;DHT22;69576;51.902;-8.462;2023-06-04T09:23:50;20.90;55.60
80274;DHT22;69576;51.902;-8.462;2023-06-04T09:26:19;21.00;55.60
80274;DHT22;69576;51.902;-8.462;2023-06-04T09:28:45;21.10;55.50
80274;DHT22;69576;51.902;-8.462;2023-06-04T09:31:19;21.20;55.50
80274;DHT22;69576;51.902;-8.462;2023-06-04T09:33:49;21.40;55.50
80274;DHT22;69576;51.902;-8.462;2023-06-04T09:36:15;21.70;55.40
80274;DHT22;69576;51.902;-8.462;2023-06-04T09:38:42;21.90;55.20
80274;DHT22;69576;51.902;-8.462;2023-06-04T09:41:15;22.10;55.00
80274;DHT22;69576;51.902;-8.462;2023-06-04T09:43:44;22.20;54.80
80274;DHT22;69576;51.902;-8.462;2023-06-04T09:46:14;22.40;54.70
80274;DHT22;69576;51.902;-8.462;2023-06-04T09:48:41;22.60;54.40
80274;DHT22;69576;51.902;-8.462;2023-06-04T09:51:18;22.70;54.40
80274;DHT22;69576;51.902;-8.462;2023-06-04T09:54:03;22.90;54.20
80274;DHT22;69576;51.902;-8.462;2023-06-04T09:56:29;23.30;53.70
80274;DHT22;69576;51.902;-8.462;2023-06-04T09:58:58;23.30;53.60
80274;DHT22;69576;51.902;-8.462;2023-06-04T10:01:27;23.20;53.80
80274;DHT22;69576;51.902;-8.462;2023-06-04T10:03:54;23.20;53.90
80274;DHT22;69576;51.902;-8.462;2023-06-04T10:06:23;23.20;53.70
80274;DHT22;69576;51.902;-8.462;2023-06-04T10:08:49;23.10;53.70
80274;DHT22;69576;51.902;-8.462;2023-06-04T10:11:31;23.30;53.50
80274;DHT22;69576;51.902;-8.462;2023-06-04T10:14:02;23.50;53.50
80274;DHT22;69576;51.902;-8.462;2023-06-04T10:16:30;23.60;53.20
80274;DHT22;69576;51.902;-8.462;2023-06-04T10:18:59;23.60;53.30
80274;DHT22;69576;51.902;-8.462;2023-06-04T10:21:26;23.70;53.30
80274;DHT22;69576;51.902;-8.462;2023-06-04T10:23:53;23.80;53.20
80274;DHT22;69576;51.902;-8.462;2023-06-04T10:26:19;23.80;53.40
80274;DHT22;69576;51.902;-8.462;2023-06-04T10:28:47;23.80;53.30
80274;DHT22;69576;51.902;-8.462;2023-06-04T10:31:15;23.80;53.50
80274;DHT22;69576;51.902;-8.462;2023-06-04T10:33:43;23.70;53.60
80274;DHT22;69576;51.902;-8.462;2023-06-04T10:36:20;23.70;53.40
80274;DHT22;69576;51.902;-8.462;2023-06-04T10:38:53;23.60;53.20
80274;DHT22;69576;51.902;-8.462;2023-06-04T10:41:23;23.60;53.30
80274;DHT22;69576;51.902;-8.462;2023-06-04T10:43:49;23.60;53.30
80274;DHT22;69576;51.902;-8.462;2023-06-04T10:46:17;23.50;53.30
80274;DHT22;69576;51.902;-8.462;2023-06-04T10:48:50;23.50;53.10
80274;DHT22;69576;51.902;-8.462;2023-06-04T10:51:28;23.40;53.30
80274;DHT22;69576;51.902;-8.462;2023-06-04T10:53:58;23.40;53.30
80274;DHT22;69576;51.902;-8.462;2023-06-04T10:56:31;23.40;53.40
80274;DHT22;69576;51.902;-8.462;2023-06-04T10:58:58;23.40;53.30
80274;DHT22;69576;51.902;-8.462;2023-06-04T11:01:29;23.30;53.40
80274;DHT22;69576;51.902;-8.462;2023-06-04T11:03:57;23.30;53.40
80274;DHT22;69576;51.902;-8.462;2023-06-04T11:06:23;23.30;53.40
80274;DHT22;69576;51.902;-8.462;2023-06-04T11:09:13;23.30;53.40
80274;DHT22;69576;51.902;-8.462;2023-06-04T11:11:42;23.20;53.50
80274;DHT22;69576;51.902;-8.462;2023-06-04T11:14:12;23.20;53.40
80274;DHT22;69576;51.902;-8.462;2023-06-04T11:16:38;23.10;53.50
80274;DHT22;69576;51.902;-8.462;2023-06-04T11:19:04;23.10;53.50
80274;DHT22;69576;51.902;-8.462;2023-06-04T11:21:32;23.00;53.40
80274;DHT22;69576;51.902;-8.462;2023-06-04T11:24:01;23.00;53.40
80274;DHT22;69576;51.902;-8.462;2023-06-04T11:26:34;23.00;53.40
80274;DHT22;69576;51.902;-8.462;2023-06-04T11:29:05;22.90;53.40
80274;DHT22;69576;51.902;-8.462;2023-06-04T11:32:00;22.90;53.50
80274;DHT22;69576;51.902;-8.462;2023-06-04T11:34:30;22.80;53.40
80274;DHT22;69576;51.902;-8.462;2023-06-04T11:37:10;22.70;53.50
80274;DHT22;69576;51.902;-8.462;2023-06-04T11:39:36;22.70;53.60
80274;DHT22;69576;51.902;-8.462;2023-06-04T11:42:05;22.60;53.60
80274;DHT22;69576;51.902;-8.462;2023-06-04T11:44:35;22.60;53.60
80274;DHT22;69576;51.902;-8.462;2023-06-04T11:47:01;22.60;53.50
80274;DHT22;69576;51.902;-8.462;2023-06-04T11:49:30;22.50;53.50
80274;DHT22;69576;51.902;-8.462;2023-06-04T11:51:59;22.50;53.50
80274;DHT22;69576;51.902;-8.462;2023-06-04T11:54:25;22.50;53.60
80274;DHT22;69576;51.902;-8.462;2023-06-04T11:56:52;22.40;53.60
80274;DHT22;69576;51.902;-8.462;2023-06-04T11:59:18;22.40;53.60
80274;DHT22;69576;51.902;-8.462;2023-06-04T12:01:46;22.30;53.60
80274;DHT22;69576;51.902;-8.462;2023-06-04T12:04:17;22.30;53.60
80274;DHT22;69576;51.902;-8.462;2023-06-04T12:06:56;22.30;53.50
80274;DHT22;69576;51.902;-8.462;2023-06-04T12:09:28;22.20;53.50
80274;DHT22;69576;51.902;-8.462;2023-06-04T12:12:01;22.20;53.50
80274;DHT22;69576;51.902;-8.462;2023-06-04T12:14:29;22.20;53.60
80274;DHT22;69576;51.902;-8.462;2023-06-04T12:19:21;22.20;53.60
80274;DHT22;69576;51.902;-8.462;2023-06-04T12:22:07;22.20;53.70
80274;DHT22;69576;51.902;-8.462;2023-06-04T12:24:46;22.20;53.60
80274;DHT22;69576;51.902;-8.462;2023-06-04T12:27:14;22.20;53.60
80274;DHT22;69576;51.902;-8.462;2023-06-04T12:29:40;22.10;53.50
80274;DHT22;69576;51.902;-8.462;2023-06-04T12:32:07;22.10;53.30
80274;DHT22;69576;51.902;-8.462;2023-06-04T12:34:37;22.10;53.50
80274;DHT22;69576;51.902;-8.462;2023-06-04T12:37:03;22.10;53.40
80274;DHT22;69576;51.902;-8.462;2023-06-04T12:39:36;22.10;53.40
80274;DHT22;69576;51.902;-8.462;2023-06-04T12:42:10;22.10;53.40
80274;DHT22;69576;51.902;-8.462;2023-06-04T12:44:39;22.10;53.30
80274;DHT22;69576;51.902;-8.462;2023-06-04T12:47:06;22.00;53.50
80274;DHT22;69576;51.902;-8.462;2023-06-04T12:49:37;22.00;53.40
80274;DHT22;69576;51.902;-8.462;2023-06-04T12:52:05;22.00;53.30
80274;DHT22;69576;51.902;-8.462;2023-06-04T12:54:32;22.00;53.30
80274;DHT22;69576;51.902;-8.462;2023-06-04T12:56:58;22.00;53.50
80274;DHT22;69576;51.902;-8.462;2023-06-04T12:59:27;22.00;53.40
80274;DHT22;69576;51.902;-8.462;2023-06-04T13:01:54;22.00;53.40
80274;DHT22;69576;51.902;-8.462;2023-06-04T13:04:20;22.00;53.10
80274;DHT22;69576;51.902;-8.462;2023-06-04T13:06:46;21.90;52.90
80274;DHT22;69576;51.902;-8.462;2023-06-04T13:09:14;21.90;52.80
80274;DHT22;69576;51.902;-8.462;2023-06-04T13:11:43;21.90;52.60
80274;DHT22;69576;51.902;-8.462;2023-06-04T13:14:10;21.90;52.80
80274;DHT22;69576;51.902;-8.462;2023-06-04T13:16:38;21.90;53.10
80274;DHT22;69576;51.902;-8.462;2023-06-04T13:19:07;21.90;53.20
80274;DHT22;69576;51.902;-8.462;2023-06-04T13:21:33;21.90;53.10
80274;DHT22;69576;51.902;-8.462;2023-06-04T13:23:59;21.80;53.00
80274;DHT22;69576;51.902;-8.462;2023-06-04T13:26:25;21.80;53.10
80274;DHT22;69576;51.902;-8.462;2023-06-04T13:28:53;21.80;53.10
80274;DHT22;69576;51.902;-8.462;2023-06-04T13:31:19;21.80;52.90
80274;DHT22;69576;51.902;-8.462;2023-06-04T13:33:50;21.70;53.20
80274;DHT22;69576;51.902;-8.462;2023-06-04T13:36:18;21.70;53.00
80274;DHT22;69576;51.902;-8.462;2023-06-04T13:38:44;21.70;53.00
80274;DHT22;69576;51.902;-8.462;2023-06-04T13:41:10;21.70;53.30
80274;DHT22;69576;51.902;-8.462;2023-06-04T13:43:35;21.70;53.00
80274;DHT22;69576;51.902;-8.462;2023-06-04T13:46:04;21.70;52.80
80274;DHT22;69576;51.902;-8.462;2023-06-04T13:48:30;21.70;52.50
80274;DHT22;69576;51.902;-8.462;2023-06-04T13:50:57;21.70;52.90
80274;DHT22;69576;51.902;-8.462;2023-06-04T13:53:28;21.70;52.90
80274;DHT22;69576;51.902;-8.462;2023-06-04T13:55:57;21.70;53.10
80274;DHT22;69576;51.902;-8.462;2023-06-04T13:58:27;21.60;53.10
80274;DHT22;69576;51.902;-8.462;2023-06-04T14:00:53;21.60;53.00
80274;DHT22;69576;51.902;-8.462;2023-06-04T14:03:19;21.60;53.10
80274;DHT22;69576;51.902;-8.462;2023-06-04T14:05:50;21.60;53.10
80274;DHT22;69576;51.902;-8.462;2023-06-04T14:08:18;21.50;53.10
80274;DHT22;69576;51.902;-8.462;2023-06-04T14:10:43;21.50;53.20
80274;DHT22;69576;51.902;-8.462;2023-06-04T14:13:09;21.50;53.00
80274;DHT22;69576;51.902;-8.462;2023-06-04T14:15:36;21.50;52.80
80274;DHT22;69576;51.902;-8.462;2023-06-04T14:18:02;21.50;52.70
80274;DHT22;69576;51.902;-8.462;2023-06-04T14:20:28;21.50;52.70
80274;DHT22;69576;51.902;-8.462;2023-06-04T14:22:56;21.50;52.70
80274;DHT22;69576;51.902;-8.462;2023-06-04T14:25:22;21.50;52.70
80274;DHT22;69576;51.902;-8.462;2023-06-04T14:27:48;21.50;52.70
80274;DHT22;69576;51.902;-8.462;2023-06-04T14:30:13;21.50;52.80
80274;DHT22;69576;51.902;-8.462;2023-06-04T14:32:39;21.50;52.90
80274;DHT22;69576;51.902;-8.462;2023-06-04T14:35:08;21.50;52.80
80274;DHT22;69576;51.902;-8.462;2023-06-04T14:37:34;21.50;52.90
80274;DHT22;69576;51.902;-8.462;2023-06-04T14:40:00;21.50;53.10
80274;DHT22;69576;51.902;-8.462;2023-06-04T14:42:25;21.50;53.00
80274;DHT22;69576;51.902;-8.462;2023-06-04T14:44:51;21.50;52.90
80274;DHT22;69576;51.902;-8.462;2023-06-04T14:47:17;21.40;52.90
80274;DHT22;69576;51.902;-8.462;2023-06-04T14:49:45;21.40;52.90
80274;DHT22;69576;51.902;-8.462;2023-06-04T14:52:11;21.40;52.60
80274;DHT22;69576;51.902;-8.462;2023-06-04T14:54:37;21.40;52.80
80274;DHT22;69576;51.902;-8.462;2023-06-04T14:57:03;21.40;52.70
80274;DHT22;69576;51.902;-8.462;2023-06-04T14:59:29;21.40;52.80
80274;DHT22;69576;51.902;-8.462;2023-06-04T15:01:55;21.40;52.70
80274;DHT22;69576;51.902;-8.462;2023-06-04T15:04:26;21.40;52.80
80274;DHT22;69576;51.902;-8.462;2023-06-04T15:06:54;21.40;52.60
80274;DHT22;69576;51.902;-8.462;2023-06-04T15:09:22;21.30;52.60
80274;DHT22;69576;51.902;-8.462;2023-06-04T15:11:48;21.30;52.60
80274;DHT22;69576;51.902;-8.462;2023-06-04T15:14:13;21.30;52.90
80274;DHT22;69576;51.902;-8.462;2023-06-04T15:16:39;21.30;52.80
80274;DHT22;69576;51.902;-8.462;2023-06-04T15:19:05;21.30;52.70
80274;DHT22;69576;51.902;-8.462;2023-06-04T15:21:33;21.30;52.70
80274;DHT22;69576;51.902;-8.462;2023-06-04T15:23:59;21.30;52.90
80274;DHT22;69576;51.902;-8.462;2023-06-04T15:26:27;21.30;52.70
80274;DHT22;69576;51.902;-8.462;2023-06-04T15:28:53;21.20;52.70
80274;DHT22;69576;51.902;-8.462;2023-06-04T15:31:24;21.20;52.70